Time,TemperatureF,DewpointF,PressureIn,WindDirection,WindDirectionDegrees,WindSpeedMPH,WindSpeedGustMPH,Humidity,HourlyPrecipIn,Conditions,Clouds,dailyrainin,SoftwareType,DateUTC
2013-03-06 00:00:00,24.5,22.0,30.06,ENE,75,0.0,9.0,90,0.00,,,0.06,Wunderground v.1.15,2013-03-06 05:00:00,
2013-03-06 00:02:00,24.4,21.9,30.06,ENE,75,0.0,9.0,90,0.00,,,0.00,Wunderground v.1.15,2013-03-06 05:02:00,
2013-03-06 00:04:00,24.3,22.1,30.06,ENE,75,0.0,9.0,91,0.00,,,0.00,Wunderground v.1.15,2013-03-06 05:04:00,
2013-03-06 00:05:00,24.3,22.1,30.06,ENE,75,0.0,9.0,91,0.00,,,0.00,Wunderground v.1.15,2013-03-06 05:05:00,
2013-03-06 00:11:00,24.2,22.2,30.06,ENE,71,1.0,9.0,92,0.00,,,0.00,Wunderground v.1.15,2013-03-06 05:11:00,
2013-03-06 00:16:00,24.2,22.2,30.05,ENE,65,1.0,9.0,92,0.00,,,0.00,Wunderground v.1.15,2013-03-06 05:16:00,
2013-03-06 00:21:00,24.3,22.3,30.05,NE,43,2.0,9.0,92,0.00,,,0.00,Wunderground v.1.15,2013-03-06 05:21:00,
2013-03-06 00:26:00,24.4,22.4,30.05,ENE,59,2.0,9.0,92,0.00,,,0.00,Wunderground v.1.15,2013-03-06 05:26:00,
2013-03-06 00:32:00,24.7,22.7,30.05,NE,53,2.0,9.0,92,0.00,,,0.00,Wunderground v.1.15,2013-03-06 05:32:00,
2013-03-06 00:37:00,25.0,23.0,30.05,ENE,60,2.0,9.0,92,0.00,,,0.00,Wunderground v.1.15,2013-03-06 05:37:00,
2013-03-06 00:42:00,25.1,23.1,30.05,ENE,60,2.0,9.0,92,0.00,,,0.00,Wunderground v.1.15,2013-03-06 05:42:00,
2013-03-06 00:47:00,25.2,23.2,30.05,ENE,61,3.0,9.0,92,0.00,,,0.00,Wunderground v.1.15,2013-03-06 05:47:00,
2013-03-06 00:52:00,25.1,22.8,30.05,ENE,63,2.0,9.0,91,0.00,,,0.00,Wunderground v.1.15,2013-03-06 05:52:00,
2013-03-06 00:57:00,24.9,22.9,30.05,ENE,60,1.0,9.0,92,0.00,,,0.00,Wunderground v.1.15,2013-03-06 05:57:00,
2013-03-06 01:02:00,25.0,23.0,30.05,ENE,64,1.0,9.0,92,0.00,,,0.00,Wunderground v.1.15,2013-03-06 06:02:00,
2013-03-06 01:07:00,25.3,23.3,30.06,ENE,65,2.0,9.0,92,0.00,,,0.00,Wunderground v.1.15,2013-03-06 06:07:00,
2013-03-06 01:12:00,25.5,23.2,30.06,ENE,66,3.0,9.0,91,0.00,,,0.00,Wunderground v.1.15,2013-03-06 06:12:00,
2013-03-06 01:18:00,25.4,23.1,30.05,ENE,64,3.0,9.0,91,0.00,,,0.00,Wunderground v.1.15,2013-03-06 06:18:00,
2013-03-06 01:24:00,25.1,22.8,30.05,ENE,60,2.0,9.0,91,0.00,,,0.00,Wunderground v.1.15,2013-03-06 06:24:00,
2013-03-06 01:29:00,24.8,22.5,30.05,ENE,68,2.0,9.0,91,0.00,,,0.00,Wunderground v.1.15,2013-03-06 06:29:00,
2013-03-06 01:34:00,24.6,22.6,30.05,ENE,66,1.0,9.0,92,0.00,,,0.00,Wunderground v.1.15,2013-03-06 06:34:00,
2013-03-06 01:39:00,24.6,22.6,30.05,ENE,66,2.0,9.0,92,0.00,,,0.00,Wunderground v.1.15,2013-03-06 06:39:00,
2013-03-06 01:45:00,24.8,22.8,30.05,ENE,63,2.0,9.0,92,0.00,,,0.00,Wunderground v.1.15,2013-03-06 06:45:00,
2013-03-06 01:50:00,25.0,23.3,30.05,ENE,63,2.0,9.0,93,0.00,,,0.00,Wunderground v.1.15,2013-03-06 06:50:00,
2013-03-06 01:55:00,25.0,23.0,30.05,ENE,64,2.0,9.0,92,0.00,,,0.00,Wunderground v.1.15,2013-03-06 06:55:00,
2013-03-06 02:00:00,25.1,23.1,30.05,ENE,60,2.0,9.0,92,0.00,,,0.00,Wunderground v.1.15,2013-03-06 07:00:00,
2013-03-06 02:05:00,25.2,23.2,30.05,NE,56,2.0,9.0,92,0.00,,,0.00,Wunderground v.1.15,2013-03-06 07:05:00,
2013-03-06 02:11:00,25.3,23.3,30.04,ENE,60,2.0,2.0,92,0.00,,,0.00,Wunderground v.1.15,2013-03-06 07:11:00,
2013-03-06 02:15:00,25.2,23.2,30.04,ENE,60,1.0,9.0,92,0.00,,,0.00,Wunderground v.1.15,2013-03-06 07:15:00,
2013-03-06 02:20:00,25.1,23.1,30.04,ENE,57,1.0,9.0,92,0.00,,,0.00,Wunderground v.1.15,2013-03-06 07:20:00,
2013-03-06 02:25:00,25.0,23.0,30.04,ENE,60,1.0,9.0,92,0.00,,,0.00,Wunderground v.1.15,2013-03-06 07:25:00,
2013-03-06 02:31:00,25.0,23.3,30.04,ENE,74,1.0,9.0,93,0.00,,,0.00,Wunderground v.1.15,2013-03-06 07:31:00,
2013-03-06 02:36:00,25.0,23.3,30.03,ENE,71,1.0,9.0,93,0.00,,,0.00,Wunderground v.1.15,2013-03-06 07:36:00,
2013-03-06 02:41:00,24.9,23.2,30.03,ENE,71,1.0,9.0,93,0.00,,,0.00,Wunderground v.1.15,2013-03-06 07:41:00,
2013-03-06 02:46:00,24.9,23.2,30.03,ENE,71,1.0,9.0,93,0.00,,,0.00,Wunderground v.1.15,2013-03-06 07:46:00,
2013-03-06 02:52:00,24.8,23.1,30.03,ENE,71,1.0,9.0,93,0.00,,,0.00,Wunderground v.1.15,2013-03-06 07:52:00,
2013-03-06 02:57:00,24.7,23.0,30.02,ENE,71,0.0,9.0,93,0.00,,,0.00,Wunderground v.1.15,2013-03-06 07:57:00,
2013-03-06 03:02:00,24.6,22.9,30.02,ENE,71,0.0,9.0,93,0.00,,,0.00,Wunderground v.1.15,2013-03-06 08:02:00,
2013-03-06 03:07:00,24.5,22.8,30.02,West,269,0.0,9.0,93,0.00,,,0.00,Wunderground v.1.15,2013-03-06 08:07:00,
2013-03-06 03:12:00,24.6,22.9,30.02,West,280,0.0,9.0,93,0.00,,,0.00,Wunderground v.1.15,2013-03-06 08:12:00,
2013-03-06 03:17:00,24.6,22.9,30.02,NNW,335,0.0,9.0,93,0.00,,,0.00,Wunderground v.1.15,2013-03-06 08:17:00,
2013-03-06 03:22:00,24.6,23.1,30.02,NNW,335,0.0,9.0,94,0.00,,,0.00,Wunderground v.1.15,2013-03-06 08:22:00,
2013-03-06 03:27:00,24.7,23.2,30.02,NNW,332,0.0,9.0,94,0.00,,,0.00,Wunderground v.1.15,2013-03-06 08:27:00,
2013-03-06 03:33:00,24.6,23.1,30.02,NNW,330,0.0,9.0,94,0.00,,,0.00,Wunderground v.1.15,2013-03-06 08:33:00,
2013-03-06 03:38:00,24.5,22.8,30.02,NNW,330,0.0,9.0,93,0.00,,,0.00,Wunderground v.1.15,2013-03-06 08:38:00,
2013-03-06 03:43:00,24.7,23.2,30.02,NNW,330,0.0,9.0,94,0.00,,,0.00,Wunderground v.1.15,2013-03-06 08:43:00,
2013-03-06 03:48:00,24.7,23.2,30.02,SW,214,0.0,9.0,94,0.00,,,0.00,Wunderground v.1.15,2013-03-06 08:48:00,
2013-03-06 03:53:00,24.8,23.3,30.02,SSE,166,0.0,9.0,94,0.00,,,0.00,Wunderground v.1.15,2013-03-06 08:53:00,
2013-03-06 03:59:00,25.0,23.5,30.03,South,187,0.0,9.0,94,0.00,,,0.00,Wunderground v.1.15,2013-03-06 08:59:00,
2013-03-06 04:04:00,25.1,23.6,30.03,South,188,0.0,9.0,94,0.00,,,0.00,Wunderground v.1.15,2013-03-06 09:04:00,
2013-03-06 04:09:00,25.2,23.7,30.03,South,173,0.0,9.0,94,0.00,,,0.00,Wunderground v.1.15,2013-03-06 09:09:00,
2013-03-06 04:14:00,25.4,23.9,30.03,WSW,245,1.0,9.0,94,0.00,,,0.00,Wunderground v.1.15,2013-03-06 09:14:00,
2013-03-06 04:19:00,25.5,24.0,30.02,SSW,197,1.0,9.0,94,0.00,,,0.00,Wunderground v.1.15,2013-03-06 09:19:00,
2013-03-06 04:25:00,25.8,24.3,30.02,SSW,211,1.0,9.0,94,0.00,,,0.00,Wunderground v.1.15,2013-03-06 09:25:00,
2013-03-06 04:30:00,25.9,24.2,30.02,SSW,211,1.0,1.0,93,0.00,,,0.00,Wunderground v.1.15,2013-03-06 09:30:00,
2013-03-06 04:35:00,26.0,24.3,30.02,NW,311,1.0,9.0,93,0.00,,,0.00,Wunderground v.1.15,2013-03-06 09:35:00,
2013-03-06 04:40:00,26.0,24.3,30.02,NW,311,1.0,1.0,93,0.00,,,0.00,Wunderground v.1.15,2013-03-06 09:40:00,
2013-03-06 04:45:00,26.0,24.3,30.02,West,278,0.0,9.0,93,0.00,,,0.00,Wunderground v.1.15,2013-03-06 09:45:00,
2013-03-06 04:51:00,26.0,24.3,30.02,SW,235,1.0,3.0,93,0.00,,,0.00,Wunderground v.1.15,2013-03-06 09:51:00,
2013-03-06 04:56:00,26.2,24.5,30.02,East,90,1.0,9.0,93,0.00,,,0.00,Wunderground v.1.15,2013-03-06 09:56:00,
2013-03-06 05:01:00,26.8,25.0,30.02,ESE,113,2.0,9.0,93,0.00,,,0.00,Wunderground v.1.15,2013-03-06 10:01:00,
2013-03-06 05:06:00,27.3,25.5,30.02,East,81,2.0,9.0,93,0.00,,,0.00,Wunderground v.1.15,2013-03-06 10:06:00,
2013-03-06 05:11:00,27.7,25.7,30.02,SE,132,4.0,5.0,92,0.00,,,0.00,Wunderground v.1.15,2013-03-06 10:11:00,
2013-03-06 05:17:00,27.8,25.8,30.03,ESE,111,5.0,9.0,92,0.00,,,0.00,Wunderground v.1.15,2013-03-06 10:17:00,
2013-03-06 05:22:00,27.6,25.6,30.03,SSW,211,4.0,9.0,92,0.00,,,0.00,Wunderground v.1.15,2013-03-06 10:22:00,
2013-03-06 05:27:00,27.5,25.5,30.03,East,96,2.0,9.0,92,0.00,,,0.00,Wunderground v.1.15,2013-03-06 10:27:00,
2013-03-06 05:32:00,27.4,25.6,30.03,East,86,3.0,9.0,93,0.00,,,0.00,Wunderground v.1.15,2013-03-06 10:32:00,
2013-03-06 05:37:00,27.4,25.6,30.03,ENE,66,5.0,9.0,93,0.00,,,0.00,Wunderground v.1.15,2013-03-06 10:37:00,
2013-03-06 05:43:00,27.4,25.6,30.03,ENE,69,3.0,5.0,93,0.00,,,0.00,Wunderground v.1.15,2013-03-06 10:43:00,
2013-03-06 05:48:00,27.3,25.5,30.03,ENE,65,3.0,7.0,93,0.00,,,0.00,Wunderground v.1.15,2013-03-06 10:48:00,
2013-03-06 05:53:00,27.3,25.8,30.03,ENE,60,4.0,7.0,94,0.00,,,0.00,Wunderground v.1.15,2013-03-06 10:53:00,
2013-03-06 05:58:00,27.4,25.9,30.03,ENE,66,5.0,11.0,94,0.00,,,0.00,Wunderground v.1.15,2013-03-06 10:58:00,
2013-03-06 06:03:00,27.4,25.9,30.02,East,95,5.0,6.0,94,0.00,,,0.00,Wunderground v.1.15,2013-03-06 11:03:00,
2013-03-06 06:09:00,27.4,25.9,30.02,ENE,64,6.0,8.0,94,0.00,,,0.00,Wunderground v.1.15,2013-03-06 11:09:00,
2013-03-06 06:14:00,27.5,26.0,30.02,ENE,63,7.0,11.0,94,0.00,,,0.00,Wunderground v.1.15,2013-03-06 11:14:00,
2013-03-06 06:19:00,27.6,26.1,30.02,ENE,60,7.0,11.0,94,0.00,,,0.00,Wunderground v.1.15,2013-03-06 11:19:00,
2013-03-06 06:24:00,27.6,26.1,30.02,NNE,25,6.0,7.0,94,0.00,,,0.00,Wunderground v.1.15,2013-03-06 11:24:00,
2013-03-06 06:29:00,27.5,26.0,30.02,ENE,60,4.0,7.0,94,0.00,,,0.00,Wunderground v.1.15,2013-03-06 11:29:00,
2013-03-06 06:35:00,27.7,26.2,30.02,ENE,68,4.0,7.0,94,0.00,,,0.00,Wunderground v.1.15,2013-03-06 11:35:00,
2013-03-06 06:40:00,27.7,26.2,30.03,ENE,73,4.0,4.0,94,0.00,,,0.00,Wunderground v.1.15,2013-03-06 11:40:00,
2013-03-06 06:45:00,27.7,26.2,30.03,NE,49,4.0,7.0,94,0.00,,,0.00,Wunderground v.1.15,2013-03-06 11:45:00,
2013-03-06 06:50:00,27.8,26.3,30.03,ESE,121,3.0,5.0,94,0.00,,,0.00,Wunderground v.1.15,2013-03-06 11:50:00,
2013-03-06 06:55:00,28.0,26.5,30.03,ESE,112,4.0,10.0,94,0.00,,,0.00,Wunderground v.1.15,2013-03-06 11:55:00,
2013-03-06 07:01:00,28.0,26.5,30.03,ENE,60,4.0,4.0,94,0.00,,,0.00,Wunderground v.1.15,2013-03-06 12:01:00,
2013-03-06 07:06:00,28.1,26.6,30.03,NE,51,3.0,10.0,94,0.00,,,0.00,Wunderground v.1.15,2013-03-06 12:06:00,
2013-03-06 07:11:00,28.1,26.3,30.03,ESE,106,4.0,4.0,93,0.00,,,0.00,Wunderground v.1.15,2013-03-06 12:11:00,
2013-03-06 07:16:00,28.2,26.4,30.04,East,98,4.0,8.0,93,0.00,,,0.00,Wunderground v.1.15,2013-03-06 12:16:00,
2013-03-06 07:21:00,28.3,26.5,30.04,NE,47,5.0,7.0,93,0.00,,,0.00,Wunderground v.1.15,2013-03-06 12:21:00,
2013-03-06 07:27:00,28.4,26.6,30.04,East,85,4.0,7.0,93,0.00,,,0.00,Wunderground v.1.15,2013-03-06 12:27:00,
2013-03-06 07:32:00,28.5,26.7,30.04,East,91,3.0,3.0,93,0.00,,,0.00,Wunderground v.1.15,2013-03-06 12:32:00,
2013-03-06 07:37:00,28.5,26.7,30.04,NE,56,3.0,5.0,93,0.00,,,0.00,Wunderground v.1.15,2013-03-06 12:37:00,
2013-03-06 07:42:00,28.6,26.8,30.04,East,79,3.0,7.0,93,0.00,,,0.00,Wunderground v.1.15,2013-03-06 12:42:00,
2013-03-06 07:47:00,28.7,26.7,30.03,SW,224,4.0,8.0,92,0.00,,,0.00,Wunderground v.1.15,2013-03-06 12:47:00,
2013-03-06 07:53:00,28.8,26.8,30.03,WNW,302,5.0,5.0,92,0.00,,,0.00,Wunderground v.1.15,2013-03-06 12:53:00,
2013-03-06 07:58:00,29.0,27.0,30.04,ESE,108,5.0,9.0,92,0.00,,,0.00,Wunderground v.1.15,2013-03-06 12:58:00,
2013-03-06 08:03:00,29.0,27.0,30.04,East,89,4.0,5.0,92,0.00,,,0.00,Wunderground v.1.15,2013-03-06 13:03:00,
2013-03-06 08:08:00,29.1,27.1,30.04,ENE,75,3.0,5.0,92,0.00,,,0.00,Wunderground v.1.15,2013-03-06 13:08:00,
2013-03-06 08:13:00,29.2,27.2,30.04,ESE,114,3.0,4.0,92,0.00,,,0.00,Wunderground v.1.15,2013-03-06 13:13:00,
2013-03-06 08:19:00,29.2,27.2,30.04,ENE,67,3.0,6.0,92,0.00,,,0.00,Wunderground v.1.15,2013-03-06 13:19:00,
2013-03-06 08:24:00,29.1,27.1,30.05,NNE,32,3.0,4.0,92,0.00,,,0.00,Wunderground v.1.15,2013-03-06 13:24:00,
2013-03-06 08:29:00,29.1,27.1,30.04,ESE,104,2.0,4.0,92,0.00,,,0.00,Wunderground v.1.15,2013-03-06 13:29:00,
2013-03-06 08:34:00,29.1,27.1,30.05,East,82,2.0,3.0,92,0.00,,,0.00,Wunderground v.1.15,2013-03-06 13:34:00,
2013-03-06 08:39:00,29.1,27.3,30.05,ENE,77,2.0,3.0,93,0.00,,,0.00,Wunderground v.1.15,2013-03-06 13:39:00,
2013-03-06 08:45:00,29.1,27.3,30.05,NNE,19,1.0,3.0,93,0.00,,,0.00,Wunderground v.1.15,2013-03-06 13:45:00,
2013-03-06 08:50:00,29.1,27.1,30.04,SW,232,2.0,3.0,92,0.00,,,0.00,Wunderground v.1.15,2013-03-06 13:50:00,
2013-03-06 08:55:00,29.2,27.2,30.05,ESE,102,2.0,4.0,92,0.00,,,0.00,Wunderground v.1.15,2013-03-06 13:55:00,
2013-03-06 09:00:00,29.2,27.2,30.05,ENE,74,2.0,4.0,92,0.00,,,0.00,Wunderground v.1.15,2013-03-06 14:00:00,
2013-03-06 09:05:00,29.2,27.2,30.05,NNW,346,2.0,5.0,92,0.00,,,0.00,Wunderground v.1.15,2013-03-06 14:05:00,
2013-03-06 09:11:00,29.2,27.2,30.05,East,96,3.0,3.0,92,0.00,,,0.00,Wunderground v.1.15,2013-03-06 14:11:00,
2013-03-06 09:16:00,29.3,27.3,30.05,East,95,3.0,6.0,92,0.00,,,0.00,Wunderground v.1.15,2013-03-06 14:16:00,
2013-03-06 09:21:00,29.4,27.4,30.05,ENE,72,4.0,4.0,92,0.00,,,0.00,Wunderground v.1.15,2013-03-06 14:21:00,
2013-03-06 09:26:00,29.4,27.4,30.05,NE,43,4.0,4.0,92,0.00,,,0.00,Wunderground v.1.15,2013-03-06 14:26:00,
2013-03-06 09:31:00,29.6,27.6,30.05,ENE,66,3.0,3.0,92,0.00,,,0.00,Wunderground v.1.15,2013-03-06 14:31:00,
2013-03-06 09:37:00,29.7,27.7,30.04,East,97,3.0,6.0,92,0.00,,,0.00,Wunderground v.1.15,2013-03-06 14:37:00,
2013-03-06 09:42:00,29.7,27.7,30.05,ESE,104,3.0,4.0,92,0.00,,,0.00,Wunderground v.1.15,2013-03-06 14:42:00,
2013-03-06 09:47:00,29.8,28.0,30.05,North,360,4.0,6.0,93,0.00,,,0.00,Wunderground v.1.15,2013-03-06 14:47:00,
2013-03-06 09:52:00,29.7,27.9,30.05,SE,132,5.0,8.0,93,0.00,,,0.00,Wunderground v.1.15,2013-03-06 14:52:00,
2013-03-06 09:57:00,29.7,27.9,30.04,SE,139,5.0,8.0,93,0.00,,,0.00,Wunderground v.1.15,2013-03-06 14:57:00,
2013-03-06 10:03:00,29.7,27.9,30.04,East,98,4.0,6.0,93,0.00,,,0.00,Wunderground v.1.15,2013-03-06 15:03:00,
2013-03-06 10:08:00,29.8,28.3,30.05,ESE,113,4.0,6.0,94,0.00,,,0.00,Wunderground v.1.15,2013-03-06 15:08:00,
2013-03-06 10:13:00,29.9,28.4,30.05,ENE,66,4.0,7.0,94,0.00,,,0.00,Wunderground v.1.15,2013-03-06 15:13:00,
2013-03-06 10:18:00,30.0,28.5,30.05,ESE,123,4.0,7.0,94,0.00,,,0.00,Wunderground v.1.15,2013-03-06 15:18:00,
2013-03-06 10:23:00,30.1,28.6,30.05,East,91,4.0,4.0,94,0.00,,,0.00,Wunderground v.1.15,2013-03-06 15:23:00,
2013-03-06 10:29:00,30.2,28.7,30.05,East,88,4.0,7.0,94,0.00,,,0.00,Wunderground v.1.15,2013-03-06 15:29:00,
2013-03-06 10:34:00,30.3,28.8,30.05,NNE,27,4.0,9.0,94,0.00,,,0.00,Wunderground v.1.15,2013-03-06 15:34:00,
2013-03-06 10:39:00,30.3,28.8,30.05,ENE,71,4.0,9.0,94,0.00,,,0.00,Wunderground v.1.15,2013-03-06 15:39:00,
2013-03-06 10:44:00,30.4,28.6,30.04,NE,55,4.0,7.0,93,0.00,,,0.00,Wunderground v.1.15,2013-03-06 15:44:00,
2013-03-06 10:49:00,30.5,29.0,30.04,ENE,60,4.0,7.0,94,0.00,,,0.00,Wunderground v.1.15,2013-03-06 15:49:00,
2013-03-06 10:55:00,30.6,29.1,30.04,ENE,60,4.0,8.0,94,0.00,,,0.00,Wunderground v.1.15,2013-03-06 15:55:00,
2013-03-06 11:00:00,30.7,29.2,30.04,NE,56,4.0,4.0,94,0.00,,,0.00,Wunderground v.1.15,2013-03-06 16:00:00,
2013-03-06 11:05:00,30.8,29.3,30.05,ENE,63,4.0,8.0,94,0.00,,,0.00,Wunderground v.1.15,2013-03-06 16:05:00,
2013-03-06 11:10:00,30.8,29.3,30.04,ENE,69,4.0,6.0,94,0.00,,,0.00,Wunderground v.1.15,2013-03-06 16:10:00,
2013-03-06 11:15:00,30.8,29.3,30.04,ENE,68,4.0,8.0,94,0.00,,,0.00,Wunderground v.1.15,2013-03-06 16:15:00,
2013-03-06 11:21:00,30.8,29.3,30.05,NE,44,5.0,7.0,94,0.00,,,0.00,Wunderground v.1.15,2013-03-06 16:21:00,
2013-03-06 11:26:00,30.8,29.3,30.05,NE,51,4.0,7.0,94,0.00,,,0.00,Wunderground v.1.15,2013-03-06 16:26:00,
2013-03-06 11:31:00,30.9,29.4,30.05,East,85,4.0,5.0,94,0.00,,,0.00,Wunderground v.1.15,2013-03-06 16:31:00,
2013-03-06 11:36:00,31.0,29.2,30.05,ENE,67,4.0,7.0,93,0.00,,,0.00,Wunderground v.1.15,2013-03-06 16:36:00,
2013-03-06 11:41:00,31.1,29.3,30.05,ENE,65,4.0,5.0,93,0.00,,,0.00,Wunderground v.1.15,2013-03-06 16:41:00,
2013-03-06 11:47:00,31.1,29.3,30.06,ENE,75,4.0,5.0,93,0.00,,,0.00,Wunderground v.1.15,2013-03-06 16:47:00,
2013-03-06 11:52:00,31.1,29.3,30.05,NNE,20,4.0,5.0,93,0.00,,,0.00,Wunderground v.1.15,2013-03-06 16:52:00,
2013-03-06 11:57:00,31.4,29.6,30.05,ESE,103,3.0,5.0,93,0.00,,,0.00,Wunderground v.1.15,2013-03-06 16:57:00,
2013-03-06 12:02:00,31.4,29.3,30.06,NE,46,4.0,8.0,92,0.00,,,0.00,Wunderground v.1.15,2013-03-06 17:02:00,
2013-03-06 12:07:00,31.7,29.6,30.05,East,79,5.0,8.0,92,0.00,,,0.00,Wunderground v.1.15,2013-03-06 17:07:00,
2013-03-06 12:13:00,32.1,29.8,30.06,East,88,4.0,5.0,91,0.00,,,0.00,Wunderground v.1.15,2013-03-06 17:13:00,
2013-03-06 12:18:00,32.1,29.8,30.05,SW,217,4.0,6.0,91,0.00,,,0.00,Wunderground v.1.15,2013-03-06 17:18:00,
2013-03-06 12:23:00,32.1,29.8,30.05,NNE,27,3.0,3.0,91,0.00,,,0.00,Wunderground v.1.15,2013-03-06 17:23:00,
2013-03-06 12:28:00,32.1,29.5,30.05,ESE,112,3.0,6.0,90,0.00,,,0.00,Wunderground v.1.15,2013-03-06 17:28:00,
2013-03-06 12:33:00,32.2,29.6,30.05,ENE,70,4.0,6.0,90,0.00,,,0.00,Wunderground v.1.15,2013-03-06 17:33:00,
2013-03-06 12:38:00,32.5,29.9,30.05,NNE,18,4.0,6.0,90,0.00,,,0.00,Wunderground v.1.15,2013-03-06 17:38:00,
2013-03-06 12:43:00,33.1,30.2,30.05,ENE,75,3.0,5.0,89,0.00,,,0.00,Wunderground v.1.15,2013-03-06 17:43:00,
2013-03-06 12:49:00,33.1,29.9,30.05,ESE,108,4.0,6.0,88,0.00,,,0.00,Wunderground v.1.15,2013-03-06 17:49:00,
2013-03-06 12:54:00,33.1,29.7,30.05,ENE,71,3.0,5.0,87,0.00,,,0.00,Wunderground v.1.15,2013-03-06 17:54:00,
2013-03-06 12:59:00,33.1,29.7,30.05,East,95,3.0,5.0,87,0.00,,,0.00,Wunderground v.1.15,2013-03-06 17:59:00,
2013-03-06 13:05:00,33.1,29.4,30.05,ENE,70,5.0,7.0,86,0.00,,,0.00,Wunderground v.1.15,2013-03-06 18:05:00,
2013-03-06 13:10:00,33.2,29.5,30.05,ENE,72,5.0,5.0,86,0.00,,,0.00,Wunderground v.1.15,2013-03-06 18:10:00,
2013-03-06 13:15:00,33.2,29.5,30.04,ENE,78,4.0,7.0,86,0.00,,,0.00,Wunderground v.1.15,2013-03-06 18:15:00,
2013-03-06 13:20:00,33.2,29.2,30.05,ENE,72,4.0,4.0,85,0.00,,,0.00,Wunderground v.1.15,2013-03-06 18:20:00,
2013-03-06 13:25:00,33.0,29.0,30.04,ENE,62,5.0,5.0,85,0.00,,,0.00,Wunderground v.1.15,2013-03-06 18:25:00,
2013-03-06 13:31:00,32.9,29.2,30.05,NE,54,5.0,5.0,86,0.00,,,0.00,Wunderground v.1.15,2013-03-06 18:31:00,
2013-03-06 13:36:00,32.9,29.2,30.05,SE,133,4.0,5.0,86,0.00,,,0.00,Wunderground v.1.15,2013-03-06 18:36:00,
2013-03-06 13:41:00,33.0,29.6,30.05,WNW,300,3.0,5.0,87,0.00,,,0.00,Wunderground v.1.15,2013-03-06 18:41:00,
2013-03-06 13:46:00,33.0,29.3,30.05,ENE,70,3.0,6.0,86,0.00,,,0.00,Wunderground v.1.15,2013-03-06 18:46:00,
2013-03-06 13:51:00,33.0,29.3,30.05,East,89,3.0,3.0,86,0.00,,,0.00,Wunderground v.1.15,2013-03-06 18:51:00,
2013-03-06 13:57:00,32.9,29.2,30.05,East,91,3.0,4.0,86,0.00,,,0.00,Wunderground v.1.15,2013-03-06 18:57:00,
2013-03-06 14:02:00,32.9,29.2,30.05,ESE,102,3.0,5.0,86,0.00,,,0.00,Wunderground v.1.15,2013-03-06 19:02:00,
2013-03-06 14:07:00,32.9,29.2,30.05,ENE,78,3.0,7.0,86,0.00,,,0.00,Wunderground v.1.15,2013-03-06 19:07:00,
2013-03-06 14:12:00,32.9,28.9,30.05,ENE,72,3.0,4.0,85,0.00,,,0.00,Wunderground v.1.15,2013-03-06 19:12:00,
2013-03-06 14:17:00,32.9,28.9,30.05,SW,219,3.0,5.0,85,0.00,,,0.00,Wunderground v.1.15,2013-03-06 19:17:00,
2013-03-06 14:23:00,32.8,28.5,30.05,ENE,63,3.0,3.0,84,0.00,,,0.00,Wunderground v.1.15,2013-03-06 19:23:00,
2013-03-06 14:28:00,32.8,28.5,30.05,ENE,76,3.0,7.0,84,0.00,,,0.00,Wunderground v.1.15,2013-03-06 19:28:00,
2013-03-06 14:33:00,32.7,28.4,30.05,ENE,66,4.0,6.0,84,0.00,,,0.00,Wunderground v.1.15,2013-03-06 19:33:00,
2013-03-06 14:38:00,32.8,28.5,30.05,East,98,4.0,6.0,84,0.00,,,0.00,Wunderground v.1.15,2013-03-06 19:38:00,
2013-03-06 14:43:00,32.7,28.4,30.05,ENE,63,4.0,7.0,84,0.00,,,0.00,Wunderground v.1.15,2013-03-06 19:43:00,
2013-03-06 14:49:00,32.7,28.1,30.05,ENE,66,4.0,9.0,83,0.00,,,0.00,Wunderground v.1.15,2013-03-06 19:49:00,
2013-03-06 14:54:00,32.7,27.8,30.05,East,94,4.0,10.0,82,0.00,,,0.00,Wunderground v.1.15,2013-03-06 19:54:00,
2013-03-06 14:59:00,32.7,27.8,30.05,NE,43,4.0,10.0,82,0.00,,,0.00,Wunderground v.1.15,2013-03-06 19:59:00,
2013-03-06 15:04:00,32.7,27.8,30.05,NE,49,5.0,7.0,82,0.00,,,0.00,Wunderground v.1.15,2013-03-06 20:04:00,
2013-03-06 15:09:00,32.7,27.8,30.05,ENE,61,4.0,7.0,82,0.00,,,0.00,Wunderground v.1.15,2013-03-06 20:09:00,
2013-03-06 15:15:00,32.6,27.7,30.05,ESE,108,5.0,9.0,82,0.00,,,0.00,Wunderground v.1.15,2013-03-06 20:15:00,
2013-03-06 15:20:00,32.4,27.8,30.05,ENE,73,5.0,5.0,83,0.00,,,0.00,Wunderground v.1.15,2013-03-06 20:20:00,
2013-03-06 15:25:00,32.2,27.6,30.05,ENE,73,5.0,7.0,83,0.00,,,0.00,Wunderground v.1.15,2013-03-06 20:25:00,
2013-03-06 15:30:00,32.0,27.4,30.06,NE,50,5.0,5.0,83,0.00,,,0.00,Wunderground v.1.15,2013-03-06 20:30:00,
2013-03-06 15:35:00,31.9,27.3,30.06,NNE,29,6.0,10.0,83,0.00,,,0.00,Wunderground v.1.15,2013-03-06 20:35:00,
2013-03-06 15:41:00,31.8,27.2,30.06,NE,53,6.0,6.0,83,0.00,,,0.00,Wunderground v.1.15,2013-03-06 20:41:00,
2013-03-06 15:46:00,31.8,27.2,30.06,East,84,5.0,7.0,83,0.00,,,0.00,Wunderground v.1.15,2013-03-06 20:46:00,
2013-03-06 15:52:00,31.7,27.1,30.06,ENE,65,5.0,5.0,83,0.00,,,0.00,Wunderground v.1.15,2013-03-06 20:52:00,
2013-03-06 15:57:00,31.6,27.0,30.06,ENE,67,6.0,8.0,83,0.00,,,0.00,Wunderground v.1.15,2013-03-06 20:57:00,
2013-03-06 16:02:00,31.7,27.1,30.06,East,88,5.0,9.0,83,0.00,,,0.00,Wunderground v.1.15,2013-03-06 21:02:00,
2013-03-06 16:06:00,31.7,27.1,30.06,East,79,4.0,9.0,83,0.00,,,0.00,Wunderground v.1.15,2013-03-06 21:06:00,
2013-03-06 16:11:00,31.6,27.0,30.06,ENE,73,5.0,8.0,83,0.00,,,0.00,Wunderground v.1.15,2013-03-06 21:11:00,
2013-03-06 16:17:00,31.5,26.9,30.07,NE,55,6.0,9.0,83,0.00,,,0.00,Wunderground v.1.15,2013-03-06 21:17:00,
2013-03-06 16:22:00,31.3,26.7,30.07,ENE,60,4.0,10.0,83,0.00,,,0.00,Wunderground v.1.15,2013-03-06 21:22:00,
2013-03-06 16:27:00,31.2,26.6,30.07,NE,43,4.0,10.0,83,0.00,,,0.00,Wunderground v.1.15,2013-03-06 21:27:00,
2013-03-06 16:33:00,31.0,26.4,30.06,NE,49,5.0,7.0,83,0.00,,,0.00,Wunderground v.1.15,2013-03-06 21:33:00,
2013-03-06 16:38:00,31.0,26.1,30.06,East,84,5.0,7.0,82,0.00,,,0.00,Wunderground v.1.15,2013-03-06 21:38:00,
2013-03-06 16:43:00,31.0,26.1,30.07,NE,55,5.0,6.0,82,0.00,,,0.00,Wunderground v.1.15,2013-03-06 21:43:00,
2013-03-06 16:48:00,31.0,26.1,30.07,East,79,5.0,12.0,82,0.00,,,0.00,Wunderground v.1.15,2013-03-06 21:48:00,
2013-03-06 16:53:00,30.9,26.1,30.07,NE,53,6.0,7.0,82,0.00,,,0.00,Wunderground v.1.15,2013-03-06 21:53:00,
2013-03-06 16:59:00,30.9,25.8,30.07,East,84,6.0,9.0,81,0.00,,,0.00,Wunderground v.1.15,2013-03-06 21:59:00,
2013-03-06 17:04:00,30.8,25.7,30.07,East,90,6.0,11.0,81,0.00,,,0.00,Wunderground v.1.15,2013-03-06 22:04:00,
2013-03-06 17:09:00,30.8,25.7,30.08,ENE,58,6.0,11.0,81,0.00,,,0.00,Wunderground v.1.15,2013-03-06 22:09:00,
2013-03-06 17:14:00,30.8,25.7,30.08,East,84,5.0,8.0,81,0.00,,,0.00,Wunderground v.1.15,2013-03-06 22:14:00,
2013-03-06 17:19:00,30.7,25.6,30.08,ENE,68,5.0,8.0,81,0.00,,,0.00,Wunderground v.1.15,2013-03-06 22:19:00,
2013-03-06 17:25:00,30.6,25.8,30.08,ENE,63,4.0,5.0,82,0.00,,,0.00,Wunderground v.1.15,2013-03-06 22:25:00,
2013-03-06 17:30:00,30.5,25.7,30.09,ENE,76,4.0,4.0,82,0.00,,,0.00,Wunderground v.1.15,2013-03-06 22:30:00,
2013-03-06 20:47:00,29.2,24.7,30.11,NE,51,4.0,4.0,83,0.00,,,0.00,Wunderground v.1.15,2013-03-07 01:47:00,
2013-03-06 20:53:00,29.1,24.6,30.11,ENE,61,3.0,4.0,83,0.00,,,0.00,Wunderground v.1.15,2013-03-07 01:53:00,
2013-03-06 20:58:00,29.1,24.3,30.11,ENE,58,3.0,7.0,82,0.00,,,0.00,Wunderground v.1.15,2013-03-07 01:58:00,
2013-03-06 21:03:00,29.1,24.0,30.11,ENE,64,3.0,5.0,81,0.00,,,0.00,Wunderground v.1.15,2013-03-07 02:03:00,
2013-03-06 21:08:00,29.0,23.9,30.11,ENE,72,3.0,5.0,81,0.00,,,0.00,Wunderground v.1.15,2013-03-07 02:08:00,
2013-03-06 21:13:00,29.0,24.2,30.11,East,82,2.0,3.0,82,0.00,,,0.00,Wunderground v.1.15,2013-03-07 02:13:00,
2013-03-06 21:19:00,28.9,23.8,30.11,East,97,2.0,5.0,81,0.00,,,0.00,Wunderground v.1.15,2013-03-07 02:19:00,
2013-03-06 21:24:00,28.9,23.8,30.11,ENE,77,3.0,5.0,81,0.00,,,0.00,Wunderground v.1.15,2013-03-07 02:24:00,
2013-03-06 21:29:00,28.9,23.5,30.12,ENE,72,3.0,7.0,80,0.00,,,0.00,Wunderground v.1.15,2013-03-07 02:29:00,
2013-03-06 21:34:00,28.8,23.4,30.11,ENE,70,3.0,3.0,80,0.00,,,0.00,Wunderground v.1.15,2013-03-07 02:34:00,
2013-03-06 21:39:00,28.8,23.4,30.11,ENE,57,2.0,3.0,80,0.00,,,0.00,Wunderground v.1.15,2013-03-07 02:39:00,
2013-03-06 21:45:00,28.8,23.1,30.12,ENE,70,3.0,5.0,79,0.00,,,0.00,Wunderground v.1.15,2013-03-07 02:45:00,
2013-03-06 21:50:00,28.8,22.8,30.12,ENE,75,4.0,4.0,78,0.00,,,0.00,Wunderground v.1.15,2013-03-07 02:50:00,
2013-03-06 21:56:00,28.7,23.0,30.11,East,89,4.0,16.0,79,0.00,,,0.00,Wunderground v.1.15,2013-03-07 02:56:00,
2013-03-06 22:02:00,28.7,23.0,30.11,ENE,65,3.0,16.0,79,0.00,,,0.00,Wunderground v.1.15,2013-03-07 03:02:00,
2013-03-06 22:07:00,28.7,22.7,30.11,ENE,72,4.0,16.0,78,0.00,,,0.00,Wunderground v.1.15,2013-03-07 03:07:00,
2013-03-06 22:13:00,28.7,23.0,30.11,ESE,105,5.0,16.0,79,0.00,,,0.00,Wunderground v.1.15,2013-03-07 03:13:00,
2013-03-06 22:19:00,28.6,22.6,30.11,East,79,5.0,16.0,78,0.00,,,0.00,Wunderground v.1.15,2013-03-07 03:19:00,
2013-03-06 22:25:00,28.6,22.6,30.11,WSW,239,5.0,16.0,78,0.00,,,0.00,Wunderground v.1.15,2013-03-07 03:25:00,
2013-03-06 22:31:00,28.6,22.6,30.11,ENE,76,5.0,16.0,78,0.00,,,0.00,Wunderground v.1.15,2013-03-07 03:31:00,
2013-03-06 22:37:00,28.5,22.5,30.10,ENE,77,5.0,16.0,78,0.00,,,0.00,Wunderground v.1.15,2013-03-07 03:37:00,
2013-03-06 22:42:00,28.4,22.4,30.11,NE,54,4.0,16.0,78,0.00,,,0.00,Wunderground v.1.15,2013-03-07 03:42:00,
2013-03-06 22:48:00,28.3,22.3,30.11,North,3,3.0,16.0,78,0.00,,,0.00,Wunderground v.1.15,2013-03-07 03:48:00,
2013-03-06 22:54:00,28.3,22.6,30.11,East,101,2.0,16.0,79,0.00,,,0.00,Wunderground v.1.15,2013-03-07 03:54:00,
2013-03-06 23:00:00,28.3,22.6,30.11,NE,56,2.0,2.0,79,0.00,,,0.00,Wunderground v.1.15,2013-03-07 04:00:00,
2013-03-06 23:05:00,28.2,22.5,30.11,East,79,2.0,16.0,79,0.00,,,0.00,Wunderground v.1.15,2013-03-07 04:05:00,
2013-03-06 23:11:00,28.3,22.9,30.11,NNE,16,2.0,16.0,80,0.00,,,0.00,Wunderground v.1.15,2013-03-07 04:11:00,
2013-03-06 23:17:00,28.2,22.8,30.11,ENE,66,2.0,16.0,80,0.00,,,0.00,Wunderground v.1.15,2013-03-07 04:17:00,
2013-03-06 23:23:00,28.2,22.8,30.11,ENE,65,3.0,16.0,80,0.00,,,0.00,Wunderground v.1.15,2013-03-07 04:23:00,
2013-03-06 23:29:00,28.2,22.8,30.11,ENE,78,3.0,16.0,80,0.00,,,0.00,Wunderground v.1.15,2013-03-07 04:29:00,
2013-03-06 23:35:00,28.2,22.8,30.11,North,1,2.0,16.0,80,0.00,,,0.00,Wunderground v.1.15,2013-03-07 04:35:00,
2013-03-06 23:41:00,28.1,22.7,30.11,ENE,65,2.0,16.0,80,0.00,,,0.00,Wunderground v.1.15,2013-03-07 04:41:00,
2013-03-06 23:46:00,28.1,23.0,30.11,East,80,2.0,16.0,81,0.00,,,0.00,Wunderground v.1.15,2013-03-07 04:46:00,
2013-03-06 23:52:00,28.1,23.0,30.11,ENE,65,3.0,16.0,81,0.00,,,0.00,Wunderground v.1.15,2013-03-07 04:52:00,
2013-03-06 23:57:00,28.1,23.0,30.10,ENE,58,3.0,16.0,81,0.00,,,0.00,Wunderground v.1.15,2013-03-07 04:57:00,